sensor_id;sensor_type;location;lat;lon;timestamp;P1;durP1;ratioP1;P2;durP2;ratioP2
27539;SDS011;15906;52.046;4.724;2022-08-21T00:01:22;5.85;;;2.92;;
27539;SDS011;15906;52.046;4.724;2022-08-21T00:04:18;7.65;;;3.50;;
27539;SDS011;15906;52.046;4.724;2022-08-21T00:07:01;11.48;;;3.63;;
27539;SDS011;15906;52.046;4.724;2022-08-21T00:09:27;8.55;;;3.50;;
27539;SDS011;15906;52.046;4.724;2022-08-21T00:11:58;9.07;;;3.13;;
27539;SDS011;15906;52.046;4.724;2022-08-21T00:14:45;6.78;;;2.78;;
27539;SDS011;15906;52.046;4.724;2022-08-21T00:17:12;7.00;;;3.17;;
27539;SDS011;15906;52.046;4.724;2022-08-21T00:20:09;5.57;;;2.92;;
27539;SDS011;15906;52.046;4.724;2022-08-21T00:22:37;7.07;;;3.33;;
27539;SDS011;15906;52.046;4.724;2022-08-21T00:25:24;6.70;;;3.30;;
27539;SDS011;15906;52.046;4.724;2022-08-21T00:27:55;10.60;;;3.47;;
27539;SDS011;15906;52.046;4.724;2022-08-21T00:30:38;9.50;;;3.55;;
27539;SDS011;15906;52.046;4.724;2022-08-21T00:33:04;8.30;;;3.42;;
27539;SDS011;15906;52.046;4.724;2022-08-21T00:35:38;9.90;;;3.85;;
27539;SDS011;15906;52.046;4.724;2022-08-21T00:38:09;7.45;;;3.40;;
27539;SDS011;15906;52.046;4.724;2022-08-21T00:40:43;10.55;;;3.83;;
27539;SDS011;15906;52.046;4.724;2022-08-21T00:43:18;9.70;;;3.83;;
27539;SDS011;15906;52.046;4.724;2022-08-21T00:46:09;11.02;;;3.85;;
27539;SDS011;15906;52.046;4.724;2022-08-21T00:48:59;6.80;;;3.90;;
27539;SDS011;15906;52.046;4.724;2022-08-21T00:51:35;11.07;;;4.13;;
27539;SDS011;15906;52.046;4.724;2022-08-21T00:54:21;8.27;;;3.33;;
27539;SDS011;15906;52.046;4.724;2022-08-21T00:57:51;6.35;;;3.03;;
27539;SDS011;15906;52.046;4.724;2022-08-21T01:00:46;8.50;;;3.67;;
27539;SDS011;15906;52.046;4.724;2022-08-21T01:03:36;8.95;;;3.30;;
27539;SDS011;15906;52.046;4.724;2022-08-21T01:06:03;7.32;;;3.35;;
27539;SDS011;15906;52.046;4.724;2022-08-21T01:08:49;7.88;;;3.08;;
27539;SDS011;15906;52.046;4.724;2022-08-21T01:11:16;8.02;;;3.13;;
27539;SDS011;15906;52.046;4.724;2022-08-21T01:14:28;6.28;;;3.17;;
27539;SDS011;15906;52.046;4.724;2022-08-21T01:16:57;6.80;;;3.40;;
27539;SDS011;15906;52.046;4.724;2022-08-21T01:19:26;5.93;;;2.88;;
27539;SDS011;15906;52.046;4.724;2022-08-21T01:21:54;5.93;;;3.53;;
27539;SDS011;15906;52.046;4.724;2022-08-21T01:24:35;9.90;;;3.25;;
27539;SDS011;15906;52.046;4.724;2022-08-21T01:27:01;5.13;;;3.20;;
27539;SDS011;15906;52.046;4.724;2022-08-21T01:29:57;9.18;;;3.83;;
27539;SDS011;15906;52.046;4.724;2022-08-21T01:32:48;6.57;;;3.17;;
27539;SDS011;15906;52.046;4.724;2022-08-21T01:35:21;9.10;;;3.50;;
27539;SDS011;15906;52.046;4.724;2022-08-21T01:38:08;7.57;;;3.42;;
27539;SDS011;15906;52.046;4.724;2022-08-21T01:41:13;8.65;;;3.72;;
27539;SDS011;15906;52.046;4.724;2022-08-21T01:43:42;10.25;;;4.35;;
27539;SDS011;15906;52.046;4.724;2022-08-21T01:47:08;11.32;;;4.25;;
27539;SDS011;15906;52.046;4.724;2022-08-21T01:49:57;10.60;;;4.18;;
27539;SDS011;15906;52.046;4.724;2022-08-21T01:52:23;7.78;;;3.83;;
27539;SDS011;15906;52.046;4.724;2022-08-21T01:55:14;9.73;;;3.85;;
27539;SDS011;15906;52.046;4.724;2022-08-21T01:58:03;11.35;;;4.57;;
27539;SDS011;15906;52.046;4.724;2022-08-21T02:00:30;11.27;;;4.72;;
27539;SDS011;15906;52.046;4.724;2022-08-21T02:03:11;13.52;;;4.90;;
27539;SDS011;15906;52.046;4.724;2022-08-21T02:05:57;10.05;;;4.75;;
27539;SDS011;15906;52.046;4.724;2022-08-21T02:08:45;12.40;;;4.93;;
27539;SDS011;15906;52.046;4.724;2022-08-21T02:11:31;9.00;;;4.40;;
27539;SDS011;15906;52.046;4.724;2022-08-21T02:14:08;11.15;;;4.55;;
27539;SDS011;15906;52.046;4.724;2022-08-21T02:16:53;13.57;;;5.05;;
27539;SDS011;15906;52.046;4.724;2022-08-21T02:19:20;9.07;;;5.80;;
27539;SDS011;15906;52.046;4.724;2022-08-21T02:22:09;11.80;;;4.80;;
27539;SDS011;15906;52.046;4.724;2022-08-21T02:24:44;13.82;;;5.10;;
27539;SDS011;15906;52.046;4.724;2022-08-21T02:27:12;12.85;;;5.30;;
27539;SDS011;15906;52.046;4.724;2022-08-21T02:29:41;9.65;;;4.68;;
27539;SDS011;15906;52.046;4.724;2022-08-21T02:32:47;10.10;;;4.85;;
27539;SDS011;15906;52.046;4.724;2022-08-21T02:35:21;12.43;;;5.30;;
27539;SDS011;15906;52.046;4.724;2022-08-21T02:37:57;14.65;;;4.38;;
27539;SDS011;15906;52.046;4.724;2022-08-21T02:40:50;7.32;;;4.22;;
27539;SDS011;15906;52.046;4.724;2022-08-21T02:43:19;8.23;;;3.80;;
27539;SDS011;15906;52.046;4.724;2022-08-21T02:45:47;13.60;;;4.82;;
27539;SDS011;15906;52.046;4.724;2022-08-21T02:48:46;12.63;;;4.15;;
27539;SDS011;15906;52.046;4.724;2022-08-21T02:51:37;10.10;;;3.90;;
27539;SDS011;15906;52.046;4.724;2022-08-21T02:54:06;8.23;;;3.78;;
27539;SDS011;15906;52.046;4.724;2022-08-21T02:56:33;7.07;;;4.03;;
27539;SDS011;15906;52.046;4.724;2022-08-21T02:59:02;13.35;;;5.07;;
27539;SDS011;15906;52.046;4.724;2022-08-21T03:01:42;9.05;;;4.22;;
27539;SDS011;15906;52.046;4.724;2022-08-21T03:04:13;9.50;;;3.78;;
27539;SDS011;15906;52.046;4.724;2022-08-21T03:06:39;8.38;;;4.13;;
27539;SDS011;15906;52.046;4.724;2022-08-21T03:09:07;10.40;;;4.13;;
27539;SDS011;15906;52.046;4.724;2022-08-21T03:11:47;6.22;;;3.63;;
27539;SDS011;15906;52.046;4.724;2022-08-21T03:14:44;10.68;;;3.72;;
27539;SDS011;15906;52.046;4.724;2022-08-21T03:17:37;12.45;;;4.72;;
27539;SDS011;15906;52.046;4.724;2022-08-21T03:20:30;9.10;;;3.70;;
27539;SDS011;15906;52.046;4.724;2022-08-21T03:23:01;13.73;;;4.00;;
27539;SDS011;15906;52.046;4.724;2022-08-21T03:25:37;8.93;;;3.55;;
27539;SDS011;15906;52.046;4.724;2022-08-21T03:28:47;8.52;;;3.15;;
27539;SDS011;15906;52.046;4.724;2022-08-21T03:31:16;7.05;;;3.47;;
27539;SDS011;15906;52.046;4.724;2022-08-21T03:33:46;9.25;;;3.40;;
27539;SDS011;15906;52.046;4.724;2022-08-21T03:36:18;6.80;;;3.72;;
27539;SDS011;15906;52.046;4.724;2022-08-21T03:39:05;9.05;;;3.58;;
27539;SDS011;15906;52.046;4.724;2022-08-21T03:41:35;11.73;;;3.60;;
27539;SDS011;15906;52.046;4.724;2022-08-21T03:44:05;8.63;;;3.05;;
27539;SDS011;15906;52.046;4.724;2022-08-21T03:46:54;9.63;;;3.20;;
27539;SDS011;15906;52.046;4.724;2022-08-21T03:49:45;8.10;;;3.30;;
27539;SDS011;15906;52.046;4.724;2022-08-21T03:52:12;12.40;;;3.65;;
27539;SDS011;15906;52.046;4.724;2022-08-21T03:54:38;7.35;;;3.80;;
27539;SDS011;15906;52.046;4.724;2022-08-21T03:57:21;6.10;;;3.22;;
27539;SDS011;15906;52.046;4.724;2022-08-21T03:59:48;8.93;;;3.10;;
27539;SDS011;15906;52.046;4.724;2022-08-21T04:02:48;7.70;;;2.88;;
27539;SDS011;15906;52.046;4.724;2022-08-21T04:05:25;8.50;;;3.00;;
27539;SDS011;15906;52.046;4.724;2022-08-21T04:08:11;15.07;;;5.28;;
27539;SDS011;15906;52.046;4.724;2022-08-21T04:10:44;9.77;;;2.95;;
27539;SDS011;15906;52.046;4.724;2022-08-21T04:13:12;9.95;;;3.60;;
27539;SDS011;15906;52.046;4.724;2022-08-21T04:15:40;9.63;;;3.42;;
27539;SDS011;15906;52.046;4.724;2022-08-21T04:18:08;5.80;;;2.88;;
27539;SDS011;15906;52.046;4.724;2022-08-21T04:20:58;9.05;;;3.47;;
27539;SDS011;15906;52.046;4.724;2022-08-21T04:23:41;14.63;;;3.55;;
27539;SDS011;15906;52.046;4.724;2022-08-21T04:26:18;8.00;;;3.53;;
27539;SDS011;15906;52.046;4.724;2022-08-21T04:28:45;13.18;;;3.30;;
27539;SDS011;15906;52.046;4.724;2022-08-21T04:31:11;13.02;;;3.75;;
27539;SDS011;15906;52.046;4.724;2022-08-21T04:33:40;14.20;;;3.55;;
27539;SDS011;15906;52.046;4.724;2022-08-21T04:36:29;10.27;;;3.05;;
27539;SDS011;15906;52.046;4.724;2022-08-21T04:39:09;7.28;;;2.65;;
27539;SDS011;15906;52.046;4.724;2022-08-21T04:41:39;6.57;;;2.50;;
27539;SDS011;15906;52.046;4.724;2022-08-21T04:44:32;9.20;;;3.13;;
27539;SDS011;15906;52.046;4.724;2022-08-21T04:47:04;12.43;;;3.60;;
27539;SDS011;15906;52.046;4.724;2022-08-21T04:49:38;12.55;;;4.00;;
27539;SDS011;15906;52.046;4.724;2022-08-21T04:52:31;8.85;;;3.05;;
27539;SDS011;15906;52.046;4.724;2022-08-21T04:54:57;7.93;;;3.00;;
27539;SDS011;15906;52.046;4.724;2022-08-21T04:57:24;9.68;;;3.17;;
27539;SDS011;15906;52.046;4.724;2022-08-21T05:00:11;7.45;;;2.95;;
27539;SDS011;15906;52.046;4.724;2022-08-21T05:02:43;7.72;;;2.95;;
27539;SDS011;15906;52.046;4.724;2022-08-21T05:05:29;7.70;;;3.72;;
27539;SDS011;15906;52.046;4.724;2022-08-21T05:08:20;12.05;;;3.28;;
27539;SDS011;15906;52.046;4.724;2022-08-21T05:10:51;9.77;;;3.70;;
27539;SDS011;15906;52.046;4.724;2022-08-21T05:13:42;11.88;;;3.83;;
27539;SDS011;15906;52.046;4.724;2022-08-21T05:16:12;8.00;;;3.45;;
27539;SDS011;15906;52.046;4.724;2022-08-21T05:19:01;11.32;;;4.05;;
27539;SDS011;15906;52.046;4.724;2022-08-21T05:21:29;13.00;;;4.07;;
27539;SDS011;15906;52.046;4.724;2022-08-21T05:23:57;11.52;;;4.18;;
27539;SDS011;15906;52.046;4.724;2022-08-21T05:26:32;10.65;;;3.67;;
27539;SDS011;15906;52.046;4.724;2022-08-21T05:29:57;13.85;;;4.07;;
27539;SDS011;15906;52.046;4.724;2022-08-21T05:32:24;13.40;;;4.63;;
27539;SDS011;15906;52.046;4.724;2022-08-21T05:35:08;15.82;;;4.47;;
27539;SDS011;15906;52.046;4.724;2022-08-21T05:37:37;12.18;;;4.57;;
27539;SDS011;15906;52.046;4.724;2022-08-21T05:40:20;12.40;;;4.45;;
27539;SDS011;15906;52.046;4.724;2022-08-21T05:42:54;16.15;;;5.00;;
27539;SDS011;15906;52.046;4.724;2022-08-21T05:45:41;15.05;;;4.45;;
27539;SDS011;15906;52.046;4.724;2022-08-21T05:48:09;16.15;;;4.65;;
27539;SDS011;15906;52.046;4.724;2022-08-21T05:50:43;11.23;;;4.63;;
27539;SDS011;15906;52.046;4.724;2022-08-21T05:53:10;12.32;;;4.95;;
27539;SDS011;15906;52.046;4.724;2022-08-21T05:55:44;15.70;;;5.15;;
27539;SDS011;15906;52.046;4.724;2022-08-21T05:58:11;16.40;;;4.80;;
27539;SDS011;15906;52.046;4.724;2022-08-21T06:00:38;18.88;;;5.50;;
27539;SDS011;15906;52.046;4.724;2022-08-21T06:03:23;12.27;;;5.15;;
27539;SDS011;15906;52.046;4.724;2022-08-21T06:05:52;14.48;;;5.70;;
27539;SDS011;15906;52.046;4.724;2022-08-21T06:08:23;16.67;;;5.28;;
27539;SDS011;15906;52.046;4.724;2022-08-21T06:10:54;18.20;;;5.63;;
27539;SDS011;15906;52.046;4.724;2022-08-21T06:13:43;13.38;;;4.85;;
27539;SDS011;15906;52.046;4.724;2022-08-21T06:16:14;13.50;;;5.13;;
27539;SDS011;15906;52.046;4.724;2022-08-21T06:18:41;15.55;;;5.80;;
27539;SDS011;15906;52.046;4.724;2022-08-21T06:21:52;17.63;;;5.18;;
27539;SDS011;15906;52.046;4.724;2022-08-21T06:24:48;13.40;;;5.05;;
27539;SDS011;15906;52.046;4.724;2022-08-21T06:27:15;15.85;;;5.45;;
27539;SDS011;15906;52.046;4.724;2022-08-21T06:30:02;15.10;;;5.55;;
27539;SDS011;15906;52.046;4.724;2022-08-21T06:32:35;12.70;;;5.10;;
27539;SDS011;15906;52.046;4.724;2022-08-21T06:35:23;15.95;;;5.20;;
27539;SDS011;15906;52.046;4.724;2022-08-21T06:38:22;10.55;;;4.88;;
27539;SDS011;15906;52.046;4.724;2022-08-21T06:40:55;13.98;;;4.47;;
27539;SDS011;15906;52.046;4.724;2022-08-21T06:43:21;13.93;;;4.47;;
27539;SDS011;15906;52.046;4.724;2022-08-21T06:46:07;12.52;;;4.63;;
27539;SDS011;15906;52.046;4.724;2022-08-21T06:48:55;19.80;;;5.05;;
27539;SDS011;15906;52.046;4.724;2022-08-21T06:51:25;13.63;;;4.97;;
27539;SDS011;15906;52.046;4.724;2022-08-21T06:53:52;15.77;;;5.13;;
27539;SDS011;15906;52.046;4.724;2022-08-21T06:56:47;15.45;;;4.75;;
27539;SDS011;15906;52.046;4.724;2022-08-21T06:59:53;15.52;;;4.80;;
27539;SDS011;15906;52.046;4.724;2022-08-21T07:02:21;11.45;;;4.25;;
27539;SDS011;15906;52.046;4.724;2022-08-21T07:04:48;10.80;;;4.43;;
27539;SDS011;15906;52.046;4.724;2022-08-21T07:07:34;13.27;;;4.22;;
27539;SDS011;15906;52.046;4.724;2022-08-21T07:10:00;14.75;;;4.85;;
27539;SDS011;15906;52.046;4.724;2022-08-21T07:12:27;12.63;;;4.22;;
27539;SDS011;15906;52.046;4.724;2022-08-21T07:14:53;11.07;;;4.55;;
27539;SDS011;15906;52.046;4.724;2022-08-21T07:17:23;12.50;;;4.72;;
27539;SDS011;15906;52.046;4.724;2022-08-21T07:19:49;15.20;;;4.13;;
27539;SDS011;15906;52.046;4.724;2022-08-21T07:22:18;14.80;;;3.80;;
27539;SDS011;15906;52.046;4.724;2022-08-21T07:24:54;14.10;;;4.15;;
27539;SDS011;15906;52.046;4.724;2022-08-21T07:27:20;11.88;;;4.13;;
27539;SDS011;15906;52.046;4.724;2022-08-21T07:29:49;15.77;;;5.47;;
27539;SDS011;15906;52.046;4.724;2022-08-21T07:32:58;12.05;;;4.20;;
27539;SDS011;15906;52.046;4.724;2022-08-21T07:36:07;12.27;;;4.28;;
27539;SDS011;15906;52.046;4.724;2022-08-21T07:38:35;12.60;;;3.97;;
27539;SDS011;15906;52.046;4.724;2022-08-21T07:41:49;14.32;;;4.10;;
27539;SDS011;15906;52.046;4.724;2022-08-21T07:44:20;13.38;;;4.13;;
27539;SDS011;15906;52.046;4.724;2022-08-21T07:46:50;17.02;;;4.15;;
27539;SDS011;15906;52.046;4.724;2022-08-21T07:49:19;9.27;;;3.80;;
27539;SDS011;15906;52.046;4.724;2022-08-21T07:51:49;16.75;;;4.35;;
27539;SDS011;15906;52.046;4.724;2022-08-21T07:54:37;7.80;;;3.20;;
27539;SDS011;15906;52.046;4.724;2022-08-21T07:57:02;9.82;;;3.40;;
27539;SDS011;15906;52.046;4.724;2022-08-21T07:59:28;10.98;;;3.92;;
27539;SDS011;15906;52.046;4.724;2022-08-21T08:01:54;15.38;;;5.07;;
27539;SDS011;15906;52.046;4.724;2022-08-21T08:04:19;8.88;;;3.22;;
27539;SDS011;15906;52.046;4.724;2022-08-21T08:06:45;14.38;;;3.60;;
27539;SDS011;15906;52.046;4.724;2022-08-21T08:09:10;12.07;;;3.60;;
27539;SDS011;15906;52.046;4.724;2022-08-21T08:11:36;9.38;;;3.25;;
27539;SDS011;15906;52.046;4.724;2022-08-21T08:14:05;12.18;;;3.45;;
27539;SDS011;15906;52.046;4.724;2022-08-21T08:16:31;12.65;;;3.63;;
27539;SDS011;15906;52.046;4.724;2022-08-21T08:18:56;12.00;;;3.53;;
27539;SDS011;15906;52.046;4.724;2022-08-21T08:21:22;14.85;;;4.20;;
27539;SDS011;15906;52.046;4.724;2022-08-21T08:23:48;12.63;;;3.38;;
27539;SDS011;15906;52.046;4.724;2022-08-21T08:26:14;11.00;;;3.42;;
27539;SDS011;15906;52.046;4.724;2022-08-21T08:28:43;9.48;;;3.17;;
27539;SDS011;15906;52.046;4.724;2022-08-21T08:31:09;8.90;;;3.03;;
27539;SDS011;15906;52.046;4.724;2022-08-21T08:33:34;12.63;;;3.30;;
27539;SDS011;15906;52.046;4.724;2022-08-21T08:36:00;11.45;;;3.33;;
27539;SDS011;15906;52.046;4.724;2022-08-21T08:38:25;10.02;;;2.42;;
27539;SDS011;15906;52.046;4.724;2022-08-21T08:41:03;15.07;;;3.50;;
27539;SDS011;15906;52.046;4.724;2022-08-21T08:43:31;8.48;;;3.30;;
27539;SDS011;15906;52.046;4.724;2022-08-21T08:46:01;9.32;;;3.42;;
27539;SDS011;15906;52.046;4.724;2022-08-21T08:48:39;11.25;;;3.63;;
27539;SDS011;15906;52.046;4.724;2022-08-21T08:52:03;10.82;;;3.20;;
27539;SDS011;15906;52.046;4.724;2022-08-21T08:54:09;9.18;;;3.17;;
27539;SDS011;15906;52.046;4.724;2022-08-21T08:56:40;9.93;;;2.83;;
27539;SDS011;15906;52.046;4.724;2022-08-21T08:59:08;12.27;;;2.83;;
27539;SDS011;15906;52.046;4.724;2022-08-21T09:01:40;10.25;;;3.00;;
27539;SDS011;15906;52.046;4.724;2022-08-21T09:04:11;13.40;;;3.60;;
27539;SDS011;15906;52.046;4.724;2022-08-21T09:06:48;9.65;;;3.67;;
27539;SDS011;15906;52.046;4.724;2022-08-21T09:18:50;9.93;;;3.33;;
27539;SDS011;15906;52.046;4.724;2022-08-21T09:27:16;10.55;;;4.07;;
27539;SDS011;15906;52.046;4.724;2022-08-21T09:29:45;13.30;;;4.43;;
27539;SDS011;15906;52.046;4.724;2022-08-21T09:32:20;9.45;;;3.88;;
27539;SDS011;15906;52.046;4.724;2022-08-21T09:34:57;5.78;;;4.07;;
27539;SDS011;15906;52.046;4.724;2022-08-21T09:37:24;11.73;;;3.85;;
27539;SDS011;15906;52.046;4.724;2022-08-21T09:39:51;8.23;;;4.05;;
27539;SDS011;15906;52.046;4.724;2022-08-21T09:42:23;6.72;;;2.80;;
27539;SDS011;15906;52.046;4.724;2022-08-21T09:45:04;5.75;;;2.67;;
27539;SDS011;15906;52.046;4.724;2022-08-21T09:47:38;9.80;;;3.10;;
27539;SDS011;15906;52.046;4.724;2022-08-21T09:50:19;8.85;;;3.17;;
27539;SDS011;15906;52.046;4.724;2022-08-21T09:52:52;9.23;;;3.10;;
27539;SDS011;15906;52.046;4.724;2022-08-21T09:55:25;12.00;;;3.35;;
27539;SDS011;15906;52.046;4.724;2022-08-21T09:58:29;6.95;;;2.20;;
27539;SDS011;15906;52.046;4.724;2022-08-21T10:00:59;11.85;;;4.15;;
27539;SDS011;15906;52.046;4.724;2022-08-21T10:03:26;7.93;;;2.17;;
27539;SDS011;15906;52.046;4.724;2022-08-21T10:05:56;9.95;;;2.42;;
27539;SDS011;15906;52.046;4.724;2022-08-21T10:08:30;6.38;;;1.77;;
27539;SDS011;15906;52.046;4.724;2022-08-21T10:11:02;10.05;;;1.65;;
27539;SDS011;15906;52.046;4.724;2022-08-21T10:19:29;7.82;;;2.20;;
27539;SDS011;15906;52.046;4.724;2022-08-21T10:22:17;5.57;;;1.75;;
27539;SDS011;15906;52.046;4.724;2022-08-21T10:30:14;7.97;;;2.40;;
27539;SDS011;15906;52.046;4.724;2022-08-21T10:47:12;11.65;;;2.33;;
27539;SDS011;15906;52.046;4.724;2022-08-21T10:49:55;6.75;;;1.77;;
27539;SDS011;15906;52.046;4.724;2022-08-21T10:52:36;6.10;;;1.90;;
27539;SDS011;15906;52.046;4.724;2022-08-21T10:55:19;7.20;;;1.70;;
27539;SDS011;15906;52.046;4.724;2022-08-21T11:00:33;9.98;;;2.05;;
27539;SDS011;15906;52.046;4.724;2022-08-21T11:03:13;7.55;;;2.03;;
27539;SDS011;15906;52.046;4.724;2022-08-21T11:05:54;6.78;;;1.50;;
27539;SDS011;15906;52.046;4.724;2022-08-21T11:08:45;6.90;;;2.17;;
27539;SDS011;15906;52.046;4.724;2022-08-21T11:11:20;6.47;;;1.77;;
27539;SDS011;15906;52.046;4.724;2022-08-21T11:13:54;8.52;;;1.95;;
27539;SDS011;15906;52.046;4.724;2022-08-21T11:19:07;4.05;;;1.65;;
27539;SDS011;15906;52.046;4.724;2022-08-21T11:22:02;9.48;;;2.85;;
27539;SDS011;15906;52.046;4.724;2022-08-21T11:27:54;15.70;;;3.53;;
27539;SDS011;15906;52.046;4.724;2022-08-21T11:30:52;6.47;;;1.60;;
27539;SDS011;15906;52.046;4.724;2022-08-21T11:34:28;7.10;;;1.95;;
27539;SDS011;15906;52.046;4.724;2022-08-21T11:37:01;9.18;;;2.08;;
27539;SDS011;15906;52.046;4.724;2022-08-21T11:40:04;7.75;;;1.77;;
27539;SDS011;15906;52.046;4.724;2022-08-21T11:42:44;10.55;;;2.25;;
27539;SDS011;15906;52.046;4.724;2022-08-21T11:45:26;8.65;;;1.88;;
27539;SDS011;15906;52.046;4.724;2022-08-21T11:48:07;7.20;;;1.70;;
27539;SDS011;15906;52.046;4.724;2022-08-21T11:50:53;9.18;;;1.92;;
27539;SDS011;15906;52.046;4.724;2022-08-21T11:53:33;6.18;;;1.75;;
27539;SDS011;15906;52.046;4.724;2022-08-21T11:56:27;6.55;;;1.70;;
27539;SDS011;15906;52.046;4.724;2022-08-21T11:59:02;9.50;;;2.72;;
27539;SDS011;15906;52.046;4.724;2022-08-21T12:01:39;6.20;;;2.25;;
27539;SDS011;15906;52.046;4.724;2022-08-21T12:04:16;6.55;;;1.60;;
27539;SDS011;15906;52.046;4.724;2022-08-21T12:06:49;5.55;;;1.75;;
27539;SDS011;15906;52.046;4.724;2022-08-21T12:11:50;6.50;;;1.77;;
27539;SDS011;15906;52.046;4.724;2022-08-21T12:14:38;5.30;;;1.98;;
27539;SDS011;15906;52.046;4.724;2022-08-21T12:17:24;5.28;;;1.70;;
27539;SDS011;15906;52.046;4.724;2022-08-21T12:20:15;5.60;;;1.77;;
27539;SDS011;15906;52.046;4.724;2022-08-21T12:22:54;4.97;;;1.83;;
27539;SDS011;15906;52.046;4.724;2022-08-21T12:25:35;8.30;;;1.73;;
27539;SDS011;15906;52.046;4.724;2022-08-21T12:28:10;5.38;;;2.05;;
27539;SDS011;15906;52.046;4.724;2022-08-21T12:30:40;6.18;;;1.80;;
27539;SDS011;15906;52.046;4.724;2022-08-21T12:35:46;8.85;;;1.98;;
27539;SDS011;15906;52.046;4.724;2022-08-21T12:38:26;6.63;;;2.05;;
27539;SDS011;15906;52.046;4.724;2022-08-21T12:40:58;4.10;;;1.65;;
27539;SDS011;15906;52.046;4.724;2022-08-21T12:43:38;5.63;;;1.67;;
27539;SDS011;15906;52.046;4.724;2022-08-21T12:46:18;10.10;;;1.85;;
27539;SDS011;15906;52.046;4.724;2022-08-21T12:48:52;5.93;;;1.80;;
27539;SDS011;15906;52.046;4.724;2022-08-21T12:51:25;6.93;;;1.40;;
27539;SDS011;15906;52.046;4.724;2022-08-21T12:53:59;4.97;;;1.38;;
27539;SDS011;15906;52.046;4.724;2022-08-21T12:56:29;4.00;;;1.63;;
27539;SDS011;15906;52.046;4.724;2022-08-21T12:58:57;6.18;;;1.63;;
27539;SDS011;15906;52.046;4.724;2022-08-21T13:01:31;5.25;;;2.28;;
27539;SDS011;15906;52.046;4.724;2022-08-21T13:04:04;5.18;;;1.80;;
27539;SDS011;15906;52.046;4.724;2022-08-21T13:06:39;7.70;;;2.63;;
27539;SDS011;15906;52.046;4.724;2022-08-21T13:09:11;4.90;;;1.52;;
27539;SDS011;15906;52.046;4.724;2022-08-21T13:11:39;4.78;;;1.20;;
27539;SDS011;15906;52.046;4.724;2022-08-21T13:14:09;6.80;;;1.60;;
27539;SDS011;15906;52.046;4.724;2022-08-21T13:16:45;5.57;;;1.63;;
27539;SDS011;15906;52.046;4.724;2022-08-21T13:19:15;4.10;;;1.52;;
27539;SDS011;15906;52.046;4.724;2022-08-21T13:21:43;5.68;;;1.92;;
27539;SDS011;15906;52.046;4.724;2022-08-21T13:26:38;5.68;;;1.80;;
27539;SDS011;15906;52.046;4.724;2022-08-21T13:29:11;3.38;;;1.30;;
27539;SDS011;15906;52.046;4.724;2022-08-21T13:31:39;6.75;;;1.67;;
27539;SDS011;15906;52.046;4.724;2022-08-21T13:34:07;7.45;;;1.60;;
27539;SDS011;15906;52.046;4.724;2022-08-21T13:36:36;5.18;;;1.40;;
27539;SDS011;15906;52.046;4.724;2022-08-21T13:39:12;7.07;;;1.38;;
27539;SDS011;15906;52.046;4.724;2022-08-21T13:41:44;4.07;;;1.63;;
27539;SDS011;15906;52.046;4.724;2022-08-21T13:44:16;3.72;;;2.08;;
27539;SDS011;15906;52.046;4.724;2022-08-21T13:46:51;8.18;;;1.67;;
27539;SDS011;15906;52.046;4.724;2022-08-21T13:49:18;4.35;;;1.60;;
27539;SDS011;15906;52.046;4.724;2022-08-21T13:51:46;5.03;;;1.48;;
27539;SDS011;15906;52.046;4.724;2022-08-21T13:54:14;5.95;;;1.45;;
27539;SDS011;15906;52.046;4.724;2022-08-21T13:56:45;4.20;;;1.88;;
27539;SDS011;15906;52.046;4.724;2022-08-21T13:59:11;4.47;;;2.22;;
27539;SDS011;15906;52.046;4.724;2022-08-21T14:01:49;3.53;;;1.63;;
27539;SDS011;15906;52.046;4.724;2022-08-21T14:04:37;4.47;;;1.45;;
27539;SDS011;15906;52.046;4.724;2022-08-21T14:07:19;6.65;;;1.60;;
27539;SDS011;15906;52.046;4.724;2022-08-21T14:09:50;3.75;;;1.70;;
27539;SDS011;15906;52.046;4.724;2022-08-21T14:12:24;5.38;;;1.63;;
27539;SDS011;15906;52.046;4.724;2022-08-21T14:14:54;3.67;;;1.80;;
27539;SDS011;15906;52.046;4.724;2022-08-21T14:17:35;6.90;;;1.90;;
27539;SDS011;15906;52.046;4.724;2022-08-21T14:20:03;6.85;;;2.05;;
27539;SDS011;15906;52.046;4.724;2022-08-21T14:22:42;6.90;;;1.63;;
27539;SDS011;15906;52.046;4.724;2022-08-21T14:27:57;5.50;;;1.45;;
27539;SDS011;15906;52.046;4.724;2022-08-21T14:30:29;5.10;;;1.67;;
27539;SDS011;15906;52.046;4.724;2022-08-21T14:32:58;7.13;;;1.52;;
27539;SDS011;15906;52.046;4.724;2022-08-21T14:35:24;5.20;;;1.67;;
27539;SDS011;15906;52.046;4.724;2022-08-21T14:37:51;4.85;;;1.52;;
27539;SDS011;15906;52.046;4.724;2022-08-21T14:40:18;6.97;;;1.85;;
27539;SDS011;15906;52.046;4.724;2022-08-21T14:42:46;4.32;;;1.83;;
27539;SDS011;15906;52.046;4.724;2022-08-21T14:45:15;6.60;;;1.88;;
27539;SDS011;15906;52.046;4.724;2022-08-21T14:47:43;5.28;;;1.75;;
27539;SDS011;15906;52.046;4.724;2022-08-21T14:50:09;5.20;;;1.80;;
27539;SDS011;15906;52.046;4.724;2022-08-21T14:52:35;3.63;;;2.08;;
27539;SDS011;15906;52.046;4.724;2022-08-21T14:55:02;5.35;;;1.60;;
27539;SDS011;15906;52.046;4.724;2022-08-21T14:57:29;6.82;;;1.40;;
27539;SDS011;15906;52.046;4.724;2022-08-21T14:59:57;7.22;;;1.45;;
27539;SDS011;15906;52.046;4.724;2022-08-21T15:02:24;6.72;;;1.85;;
27539;SDS011;15906;52.046;4.724;2022-08-21T15:04:50;4.07;;;1.67;;
27539;SDS011;15906;52.046;4.724;2022-08-21T15:07:15;5.93;;;2.70;;
27539;SDS011;15906;52.046;4.724;2022-08-21T15:09:41;4.43;;;1.80;;
27539;SDS011;15906;52.046;4.724;2022-08-21T15:12:06;6.07;;;1.75;;
27539;SDS011;15906;52.046;4.724;2022-08-21T15:14:33;6.53;;;1.67;;
27539;SDS011;15906;52.046;4.724;2022-08-21T15:17:01;5.32;;;1.40;;
27539;SDS011;15906;52.046;4.724;2022-08-21T15:19:28;5.35;;;1.48;;
27539;SDS011;15906;52.046;4.724;2022-08-21T15:21:54;8.63;;;2.22;;
27539;SDS011;15906;52.046;4.724;2022-08-21T15:24:21;9.10;;;2.05;;
27539;SDS011;15906;52.046;4.724;2022-08-21T15:26:47;9.48;;;1.83;;
27539;SDS011;15906;52.046;4.724;2022-08-21T15:29:13;5.25;;;1.80;;
27539;SDS011;15906;52.046;4.724;2022-08-21T15:31:49;6.57;;;2.40;;
27539;SDS011;15906;52.046;4.724;2022-08-21T15:34:26;7.43;;;2.00;;
27539;SDS011;15906;52.046;4.724;2022-08-21T15:36:53;8.32;;;2.25;;
27539;SDS011;15906;52.046;4.724;2022-08-21T15:39:25;8.88;;;2.88;;
27539;SDS011;15906;52.046;4.724;2022-08-21T15:41:51;9.57;;;2.22;;
27539;SDS011;15906;52.046;4.724;2022-08-21T15:44:17;7.40;;;1.85;;
27539;SDS011;15906;52.046;4.724;2022-08-21T15:46:52;8.40;;;1.88;;
27539;SDS011;15906;52.046;4.724;2022-08-21T15:49:17;4.35;;;1.73;;
27539;SDS011;15906;52.046;4.724;2022-08-21T15:51:43;5.60;;;1.70;;
27539;SDS011;15906;52.046;4.724;2022-08-21T15:54:09;6.22;;;1.73;;
27539;SDS011;15906;52.046;4.724;2022-08-21T15:56:36;4.53;;;1.83;;
27539;SDS011;15906;52.046;4.724;2022-08-21T15:59:06;4.47;;;1.88;;
27539;SDS011;15906;52.046;4.724;2022-08-21T16:01:36;6.10;;;1.70;;
27539;SDS011;15906;52.046;4.724;2022-08-21T16:04:03;5.70;;;1.92;;
27539;SDS011;15906;52.046;4.724;2022-08-21T16:06:29;9.73;;;2.50;;
27539;SDS011;15906;52.046;4.724;2022-08-21T16:08:57;5.97;;;1.90;;
27539;SDS011;15906;52.046;4.724;2022-08-21T16:11:23;5.05;;;2.13;;
27539;SDS011;15906;52.046;4.724;2022-08-21T16:13:50;4.00;;;1.75;;
27539;SDS011;15906;52.046;4.724;2022-08-21T16:16:16;5.75;;;2.00;;
27539;SDS011;15906;52.046;4.724;2022-08-21T16:18:45;8.68;;;2.40;;
27539;SDS011;15906;52.046;4.724;2022-08-21T16:21:12;10.43;;;2.40;;
27539;SDS011;15906;52.046;4.724;2022-08-21T16:23:38;7.03;;;2.45;;
27539;SDS011;15906;52.046;4.724;2022-08-21T16:26:05;12.35;;;2.53;;
27539;SDS011;15906;52.046;4.724;2022-08-21T16:28:35;6.80;;;2.15;;
27539;SDS011;15906;52.046;4.724;2022-08-21T16:31:03;7.93;;;2.47;;
27539;SDS011;15906;52.046;4.724;2022-08-21T16:33:35;7.15;;;2.03;;
27539;SDS011;15906;52.046;4.724;2022-08-21T16:36:04;7.43;;;2.22;;